createdAt,value
2019-03-03T00:01:24.119Z,10.90
2019-03-03T00:03:52.912Z,10.90
2019-03-03T00:06:21.380Z,10.90
2019-03-03T00:08:49.892Z,10.90
2019-03-03T00:11:18.331Z,10.90
2019-03-03T00:13:46.776Z,10.90
2019-03-03T00:16:34.552Z,10.90
2019-03-03T00:19:02.990Z,10.90
2019-03-03T00:21:50.797Z,10.90
2019-03-03T00:24:19.303Z,11.00
2019-03-03T00:26:47.727Z,11.00
2019-03-03T00:29:16.179Z,11.00
2019-03-03T00:32:03.982Z,11.00
2019-03-03T00:34:32.403Z,11.10
2019-03-03T00:37:02.494Z,11.00
2019-03-03T00:39:48.869Z,11.00
2019-03-03T00:42:35.195Z,11.00
2019-03-03T00:45:18.817Z,11.00
2019-03-03T00:47:51.539Z,11.00
2019-03-03T00:50:43.623Z,11.00
2019-03-03T00:53:13.850Z,11.00
2019-03-03T00:55:46.633Z,11.00
2019-03-03T00:58:19.242Z,11.00
2019-03-03T01:00:55.338Z,11.00
2019-03-03T01:03:30.912Z,11.10
2019-03-03T01:06:38.624Z,11.00
2019-03-03T01:09:23.299Z,11.00
2019-03-03T01:12:12.804Z,11.00
2019-03-03T01:14:51.868Z,11.10
2019-03-03T01:17:21.990Z,11.10
2019-03-03T01:20:10.374Z,11.10
2019-03-03T01:22:55.443Z,11.10
2019-03-03T01:25:23.879Z,11.10
2019-03-03T01:27:52.336Z,11.20
2019-03-03T01:30:20.748Z,11.20
2019-03-03T01:32:49.226Z,11.20
2019-03-03T01:35:17.646Z,11.30
2019-03-03T01:37:46.096Z,11.30
2019-03-03T01:40:14.518Z,11.30
2019-03-03T01:42:43.043Z,11.30
2019-03-03T01:45:14.067Z,11.30
2019-03-03T01:47:42.592Z,11.30
2019-03-03T01:50:12.345Z,11.40
2019-03-03T01:52:40.834Z,11.30
2019-03-03T01:55:10.951Z,11.40
2019-03-03T01:57:39.380Z,11.40
2019-03-03T02:00:22.562Z,11.30
2019-03-03T02:02:55.245Z,11.40
2019-03-03T02:05:23.674Z,11.30
2019-03-03T02:07:52.123Z,11.30
2019-03-03T02:10:39.980Z,11.30
2019-03-03T02:13:08.558Z,11.40
2019-03-03T02:15:36.983Z,11.40
2019-03-03T02:18:05.799Z,11.40
2019-03-03T02:20:34.362Z,11.40
2019-03-03T02:23:02.811Z,11.30
2019-03-03T02:25:31.251Z,11.30
2019-03-03T02:27:59.742Z,11.30
2019-03-03T02:30:28.183Z,11.30
2019-03-03T02:32:56.617Z,11.20
2019-03-03T02:38:20.737Z,11.20
2019-03-03T02:40:49.164Z,11.20
2019-03-03T02:43:17.603Z,11.20
2019-03-03T02:45:46.095Z,11.20
2019-03-03T02:48:20.505Z,11.20
2019-03-03T02:50:49.081Z,11.20
2019-03-03T02:53:17.610Z,11.20
2019-03-03T02:55:58.086Z,11.20
2019-03-03T02:58:26.502Z,11.20
2019-03-03T03:01:19.065Z,11.20
2019-03-03T03:06:50.646Z,11.10
2019-03-03T03:09:21.483Z,11.10
2019-03-03T03:12:08.287Z,11.10
2019-03-03T03:14:41.096Z,11.10
2019-03-03T03:17:11.251Z,11.00
2019-03-03T03:19:47.300Z,10.90
2019-03-03T03:22:35.379Z,10.90
2019-03-03T03:25:06.999Z,10.90
2019-03-03T03:27:37.187Z,10.90
2019-03-03T03:30:12.852Z,10.90
2019-03-03T03:32:42.996Z,10.80
2019-03-03T03:35:15.868Z,10.80
2019-03-03T03:38:02.053Z,10.80
2019-03-03T03:40:41.004Z,10.80
2019-03-03T03:46:15.195Z,10.80
2019-03-03T03:49:07.559Z,10.80
2019-03-03T03:51:37.665Z,10.70
2019-03-03T03:54:07.805Z,10.70
2019-03-03T03:56:37.869Z,10.70
2019-03-03T04:04:50.749Z,10.70
2019-03-03T04:10:18.637Z,10.70
2019-03-03T04:12:48.799Z,10.70
2019-03-03T04:15:30.651Z,10.60
2019-03-03T04:18:09.621Z,10.60
2019-03-03T04:20:54.510Z,10.60
2019-03-03T04:23:24.690Z,10.60
2019-03-03T04:25:54.756Z,10.50
2019-03-03T04:28:47.080Z,10.60
2019-03-03T04:31:33.611Z,10.50
2019-03-03T04:34:18.984Z,10.50
2019-03-03T04:36:58.042Z,10.50
2019-03-03T04:39:53.159Z,10.50
2019-03-03T04:42:37.933Z,10.50
2019-03-03T04:45:14.901Z,10.50
2019-03-03T04:48:03.588Z,10.50
2019-03-03T04:50:49.582Z,10.50
2019-03-03T04:53:20.173Z,10.50
2019-03-03T04:55:53.630Z,10.50
2019-03-03T04:58:27.168Z,10.50
2019-03-03T05:00:57.488Z,10.50
2019-03-03T05:03:39.366Z,10.50
2019-03-03T05:06:24.395Z,10.50
2019-03-03T05:09:00.520Z,10.50
2019-03-03T05:15:21.811Z,10.40
2019-03-03T05:17:51.870Z,10.40
2019-03-03T05:20:20.299Z,10.40
2019-03-03T05:22:48.749Z,10.40
2019-03-03T05:25:17.172Z,10.40
2019-03-03T05:27:45.587Z,10.40
2019-03-03T05:30:15.177Z,10.40
2019-03-03T05:32:43.613Z,10.40
2019-03-03T05:35:12.031Z,10.40
2019-03-03T05:37:40.477Z,10.40
2019-03-03T05:40:09.082Z,10.40
2019-03-03T05:42:37.496Z,10.50
2019-03-03T05:45:06.912Z,10.50
2019-03-03T05:47:35.410Z,10.50
2019-03-03T05:50:23.267Z,10.40
2019-03-03T05:52:51.684Z,10.40
2019-03-03T05:55:20.131Z,10.40
2019-03-03T05:58:07.919Z,10.40
2019-03-03T06:00:36.344Z,10.40
2019-03-03T06:03:04.876Z,10.40
2019-03-03T06:05:33.424Z,10.40
2019-03-03T06:08:01.872Z,10.40
2019-03-03T06:10:49.650Z,10.40
2019-03-03T06:13:18.066Z,10.30
2019-03-03T06:16:05.855Z,10.30
2019-03-03T06:18:34.281Z,10.30
2019-03-03T06:21:22.075Z,10.30
2019-03-03T06:23:50.513Z,10.30
2019-03-03T06:26:19.026Z,10.40
2019-03-03T06:28:47.449Z,10.40
2019-03-03T06:31:15.967Z,10.40
2019-03-03T06:33:44.391Z,10.40
2019-03-03T06:36:12.816Z,10.40
2019-03-03T06:38:41.270Z,10.40
2019-03-03T06:41:09.702Z,10.40
2019-03-03T06:43:57.503Z,10.40
2019-03-03T06:46:32.075Z,10.50
2019-03-03T06:49:00.534Z,10.50
2019-03-03T06:51:48.475Z,10.50
2019-03-03T06:54:16.920Z,10.50
2019-03-03T06:56:45.377Z,10.50
2019-03-03T06:59:13.787Z,10.50
2019-03-03T07:01:42.212Z,10.50
2019-03-03T07:04:10.744Z,10.60
2019-03-03T07:06:39.158Z,10.60
2019-03-03T07:09:28.508Z,10.60
2019-03-03T07:11:56.995Z,10.60
2019-03-03T07:14:25.411Z,10.70
2019-03-03T07:16:53.870Z,10.70
2019-03-03T07:19:22.307Z,10.70
2019-03-03T07:21:50.735Z,10.70
2019-03-03T07:24:19.179Z,10.70
2019-03-03T07:26:47.638Z,10.80
2019-03-03T07:29:16.048Z,10.90
2019-03-03T07:31:44.468Z,10.90
2019-03-03T07:34:12.995Z,10.90
2019-03-03T07:36:41.463Z,10.90
2019-03-03T07:39:17.716Z,11.00
2019-03-03T07:41:46.156Z,11.00
2019-03-03T07:44:14.595Z,11.00
2019-03-03T07:46:43.047Z,11.10
2019-03-03T07:49:11.482Z,11.10
2019-03-03T07:51:39.908Z,11.10
2019-03-03T07:54:08.346Z,11.20
2019-03-03T07:56:36.791Z,11.20
2019-03-03T07:59:24.587Z,11.20
2019-03-03T08:02:12.352Z,11.20
2019-03-03T08:04:53.452Z,11.20
2019-03-03T08:07:34.480Z,11.20
2019-03-03T08:10:03.000Z,11.20
2019-03-03T08:12:31.419Z,11.20
2019-03-03T08:14:59.875Z,11.30
2019-03-03T08:17:28.311Z,11.30
2019-03-03T08:19:56.815Z,11.30
2019-03-03T08:22:25.278Z,11.30
2019-03-03T08:24:54.093Z,11.40
2019-03-03T08:27:23.667Z,11.40
2019-03-03T08:30:04.659Z,11.40
2019-03-03T08:32:33.384Z,11.40
2019-03-03T08:35:02.247Z,11.50
2019-03-03T08:37:51.550Z,11.50
2019-03-03T08:40:40.370Z,11.50
2019-03-03T08:43:32.055Z,11.50
2019-03-03T08:46:17.598Z,11.50
2019-03-03T08:48:54.202Z,11.50
2019-03-03T08:51:24.667Z,11.50
2019-03-03T08:53:54.791Z,11.50
2019-03-03T08:56:56.306Z,11.60
2019-03-03T08:59:26.690Z,11.60
2019-03-03T09:01:57.100Z,11.60
2019-03-03T09:04:55.940Z,11.60
2019-03-03T09:07:30.621Z,11.60
2019-03-03T09:10:04.026Z,11.60
2019-03-03T09:12:53.592Z,11.60
2019-03-03T09:15:24.691Z,11.60
2019-03-03T09:18:00.805Z,11.70
2019-03-03T09:20:39.939Z,11.70
2019-03-03T09:23:10.350Z,11.70
2019-03-03T09:25:46.798Z,11.70
2019-03-03T09:28:22.716Z,11.70
2019-03-03T09:30:58.939Z,11.70
2019-03-03T09:33:29.325Z,11.70
2019-03-03T09:36:08.442Z,11.70
2019-03-03T09:38:55.163Z,11.70
2019-03-03T09:41:34.043Z,11.70
2019-03-03T09:44:10.562Z,11.70
2019-03-03T09:46:58.201Z,11.70
2019-03-03T09:52:50.804Z,11.80
2019-03-03T09:55:51.994Z,11.90
2019-03-03T10:01:36.257Z,11.90
2019-03-03T10:04:22.292Z,11.90
2019-03-03T10:06:52.354Z,12.00
2019-03-03T10:09:23.027Z,12.00
2019-03-03T10:11:53.091Z,12.00
2019-03-03T10:14:23.159Z,12.00
2019-03-03T10:17:11.011Z,12.00
2019-03-03T10:19:57.513Z,12.00
2019-03-03T10:22:27.598Z,12.00
2019-03-03T10:24:57.663Z,12.00
2019-03-03T10:27:30.659Z,12.00
2019-03-03T10:30:06.431Z,12.10
2019-03-03T10:33:10.855Z,12.10
2019-03-03T10:41:29.333Z,12.00
2019-03-03T10:44:02.240Z,12.10
2019-03-03T10:46:32.306Z,12.20
2019-03-03T10:49:21.723Z,12.30
2019-03-03T10:52:10.219Z,12.40
2019-03-03T10:55:05.470Z,12.50
2019-03-03T10:57:38.319Z,12.60
2019-03-03T11:00:20.452Z,12.80
2019-03-03T11:02:52.939Z,12.90
2019-03-03T11:05:23.095Z,13.00
2019-03-03T11:08:10.203Z,13.10
2019-03-03T11:13:44.295Z,13.30
2019-03-03T11:16:14.472Z,13.40
2019-03-03T11:19:09.571Z,13.50
2019-03-03T11:21:48.672Z,13.70
2019-03-03T11:24:21.702Z,13.90
2019-03-03T11:26:54.583Z,14.00
2019-03-03T11:30:01.619Z,14.10
2019-03-03T11:32:49.263Z,14.10
2019-03-03T11:35:22.284Z,13.90
2019-03-03T11:38:11.744Z,13.90
2019-03-03T11:40:41.896Z,13.90
2019-03-03T11:43:26.771Z,13.90
2019-03-03T11:46:09.118Z,13.90
2019-03-03T11:48:44.916Z,13.80
2019-03-03T11:51:17.703Z,13.70
2019-03-03T11:53:50.692Z,13.70
2019-03-03T11:56:33.070Z,13.70
2019-03-03T11:59:05.951Z,13.70
2019-03-03T12:01:52.162Z,13.70
2019-03-03T12:04:34.484Z,13.70
2019-03-03T12:07:10.515Z,13.70
2019-03-03T12:10:02.600Z,13.70
2019-03-03T12:15:44.144Z,13.70
2019-03-03T12:18:26.531Z,13.70
2019-03-03T12:21:14.979Z,13.70
2019-03-03T12:23:54.175Z,13.70
2019-03-03T12:26:42.355Z,13.70
2019-03-03T12:29:40.571Z,13.60
2019-03-03T12:32:25.535Z,13.60
2019-03-03T12:35:07.459Z,13.60
2019-03-03T12:37:53.716Z,13.60
2019-03-03T12:43:49.947Z,13.40
2019-03-03T12:46:25.633Z,13.40
2019-03-03T12:48:58.368Z,13.30
2019-03-03T12:51:30.911Z,13.30
2019-03-03T12:54:20.435Z,13.20
2019-03-03T12:57:09.273Z,13.20
2019-03-03T12:59:39.333Z,13.20
2019-03-03T13:05:12.645Z,13.20
2019-03-03T13:07:58.827Z,13.10
2019-03-03T13:10:28.894Z,13.10
2019-03-03T13:13:16.986Z,13.00
2019-03-03T13:15:47.053Z,13.00
2019-03-03T13:18:33.261Z,12.90
2019-03-03T13:21:09.283Z,12.90
2019-03-03T13:23:57.909Z,12.90
2019-03-03T13:29:40.763Z,13.00
2019-03-03T13:32:22.639Z,13.00
2019-03-03T13:35:04.651Z,12.90
2019-03-03T13:37:34.709Z,13.00
2019-03-03T13:40:10.591Z,12.90
2019-03-03T13:42:43.702Z,13.00
2019-03-03T13:45:12.979Z,13.00
2019-03-03T13:47:41.419Z,13.00
2019-03-03T13:50:12.717Z,13.00
2019-03-03T13:52:41.232Z,13.00
2019-03-03T13:55:11.613Z,13.00
2019-03-03T13:57:40.184Z,13.00
2019-03-03T14:00:19.335Z,13.00
2019-03-03T14:02:48.841Z,13.00
2019-03-03T14:05:21.866Z,12.90
2019-03-03T14:07:50.591Z,12.90
2019-03-03T14:10:19.166Z,12.90
2019-03-03T14:12:47.668Z,12.90
2019-03-03T14:15:18.743Z,12.90
2019-03-03T14:17:47.649Z,12.90
2019-03-03T14:20:36.811Z,12.90
2019-03-03T14:23:07.183Z,12.90
2019-03-03T14:25:56.543Z,12.80
2019-03-03T14:28:25.048Z,12.80
2019-03-03T14:30:53.828Z,12.90
2019-03-03T14:33:22.661Z,12.80
2019-03-03T14:35:51.168Z,12.80
2019-03-03T14:38:19.936Z,12.80
2019-03-03T14:40:48.395Z,12.80
2019-03-03T14:43:16.976Z,12.80
2019-03-03T14:46:05.161Z,12.80
2019-03-03T14:48:53.064Z,12.80
2019-03-03T14:51:41.246Z,12.80
2019-03-03T14:54:09.738Z,12.80
2019-03-03T14:56:38.401Z,12.80
2019-03-03T14:59:07.045Z,12.90
2019-03-03T15:01:35.812Z,12.90
2019-03-03T15:04:04.525Z,12.90
2019-03-03T15:06:33.362Z,12.90
2019-03-03T15:09:01.847Z,12.90
2019-03-03T15:11:30.691Z,12.90
2019-03-03T15:14:00.194Z,12.90
2019-03-03T15:16:30.268Z,12.90
2019-03-03T15:18:59.146Z,12.90
2019-03-03T15:21:27.970Z,12.90
2019-03-03T15:23:56.447Z,12.90
2019-03-03T15:26:24.906Z,12.90
2019-03-03T15:28:53.339Z,13.00
2019-03-03T15:31:21.761Z,12.90
2019-03-03T15:34:09.923Z,13.00
2019-03-03T15:36:38.562Z,13.00
2019-03-03T15:39:08.047Z,13.00
2019-03-03T15:41:36.611Z,13.00
2019-03-03T15:44:07.731Z,13.00
2019-03-03T15:46:36.449Z,13.00
2019-03-03T15:49:05.316Z,13.00
2019-03-03T15:51:35.496Z,13.00
2019-03-03T15:54:05.217Z,13.00
2019-03-03T15:56:33.698Z,13.00
2019-03-03T15:59:21.488Z,13.00
2019-03-03T16:04:38.704Z,13.00
2019-03-03T16:07:07.165Z,13.00
2019-03-03T16:09:54.928Z,13.10
2019-03-03T16:12:23.555Z,13.10
2019-03-03T16:14:51.980Z,13.00
2019-03-03T16:17:20.404Z,13.00
2019-03-03T16:19:48.848Z,13.00
2019-03-03T16:22:17.311Z,13.00
2019-03-03T16:24:45.812Z,13.00
2019-03-03T16:27:21.576Z,13.00
2019-03-03T16:29:50.027Z,13.00
2019-03-03T16:32:18.470Z,13.00
2019-03-03T16:34:46.919Z,13.00
2019-03-03T16:37:15.337Z,13.00
2019-03-03T16:39:43.795Z,13.00
2019-03-03T16:42:12.213Z,13.00
2019-03-03T16:44:40.652Z,13.00
2019-03-03T16:47:09.079Z,13.00
2019-03-03T16:49:37.538Z,13.00
2019-03-03T16:52:06.042Z,13.00
2019-03-03T16:54:34.480Z,13.00
2019-03-03T16:57:22.325Z,13.00
2019-03-03T16:59:50.858Z,13.00
2019-03-03T17:02:38.620Z,13.00
2019-03-03T17:05:10.603Z,13.00
2019-03-03T17:07:39.148Z,13.00
2019-03-03T17:10:09.514Z,13.00
2019-03-03T17:12:37.941Z,13.00
2019-03-03T17:15:09.443Z,13.00
2019-03-03T17:17:37.895Z,13.00
2019-03-03T17:20:09.258Z,13.00
2019-03-03T17:22:37.710Z,13.00
2019-03-03T17:25:32.812Z,13.00
2019-03-03T17:28:13.992Z,13.00
2019-03-03T17:30:42.452Z,13.00
2019-03-03T17:33:10.859Z,13.00
2019-03-03T17:35:39.322Z,13.00
2019-03-03T17:38:27.092Z,12.90
2019-03-03T17:40:55.528Z,12.90
2019-03-03T17:43:23.986Z,12.90
2019-03-03T17:45:52.458Z,12.90
2019-03-03T17:48:20.916Z,12.90
2019-03-03T17:50:49.331Z,12.90
2019-03-03T17:53:17.764Z,12.90
2019-03-03T17:55:46.212Z,12.90
2019-03-03T17:58:14.632Z,12.90
2019-03-03T18:00:44.728Z,12.90
2019-03-03T18:03:13.152Z,12.90
2019-03-03T18:05:41.598Z,12.90
2019-03-03T18:08:10.039Z,12.90
2019-03-03T18:10:38.492Z,12.90
2019-03-03T18:13:07.071Z,12.90
2019-03-03T18:15:35.513Z,12.90
2019-03-03T18:18:12.811Z,12.90
2019-03-03T18:20:41.436Z,12.90
2019-03-03T18:23:09.981Z,12.90
2019-03-03T18:28:28.199Z,12.90
2019-03-03T18:30:56.914Z,12.90
2019-03-03T18:33:25.775Z,12.90
2019-03-03T18:35:55.621Z,12.90
2019-03-03T18:38:24.179Z,12.90
2019-03-03T18:40:52.945Z,12.90
2019-03-03T18:43:21.464Z,12.90
2019-03-03T18:45:49.892Z,12.90
2019-03-03T18:51:14.763Z,12.90
2019-03-03T18:53:43.230Z,12.90
2019-03-03T18:56:11.711Z,13.00
2019-03-03T18:58:40.224Z,13.00
2019-03-03T19:01:08.675Z,13.00
2019-03-03T19:03:37.132Z,13.10
2019-03-03T19:06:05.561Z,13.10
2019-03-03T19:08:34.006Z,13.10
2019-03-03T19:11:21.768Z,13.10
2019-03-03T19:14:02.876Z,13.10
2019-03-03T19:16:31.367Z,13.10
2019-03-03T19:21:55.088Z,13.00
2019-03-03T19:24:23.512Z,13.00
2019-03-03T19:26:52.006Z,13.00
2019-03-03T19:29:20.491Z,13.00
2019-03-03T19:32:08.283Z,13.00
2019-03-03T19:34:37.104Z,13.10
2019-03-03T19:37:05.881Z,13.10
2019-03-03T19:39:34.643Z,13.10
2019-03-03T19:42:03.314Z,13.10
2019-03-03T19:44:32.104Z,13.10
2019-03-03T19:47:06.117Z,13.10
2019-03-03T19:49:34.789Z,13.10
2019-03-03T19:52:09.191Z,13.20
2019-03-03T19:54:38.064Z,13.20
2019-03-03T19:57:06.796Z,13.20
2019-03-03T19:59:35.665Z,13.20
2019-03-03T20:02:04.214Z,13.20
2019-03-03T20:04:32.676Z,13.20
2019-03-03T20:07:01.137Z,13.20
2019-03-03T20:09:29.555Z,13.20
2019-03-03T20:12:17.348Z,13.20
2019-03-03T20:15:09.382Z,13.10
2019-03-03T20:17:38.371Z,13.10
2019-03-03T20:20:09.919Z,13.10
2019-03-03T20:22:38.890Z,13.10
2019-03-03T20:25:09.724Z,13.10
2019-03-03T20:27:38.582Z,13.10
2019-03-03T20:30:18.208Z,13.10
2019-03-03T20:32:48.314Z,13.10
2019-03-03T20:35:17.275Z,13.10
2019-03-03T20:37:46.381Z,13.10
2019-03-03T20:40:26.721Z,13.10
2019-03-03T20:42:55.883Z,13.20
2019-03-03T20:45:28.731Z,13.10
2019-03-03T20:48:03.258Z,13.10
2019-03-03T20:53:21.616Z,12.90
2019-03-03T20:55:56.121Z,12.90
2019-03-03T20:58:24.636Z,12.90
2019-03-03T21:00:53.350Z,12.90
2019-03-03T21:03:21.858Z,12.90
2019-03-03T21:05:50.433Z,13.00
2019-03-03T21:08:19.828Z,13.00
2019-03-03T21:10:48.259Z,13.10
2019-03-03T21:13:36.056Z,13.10
2019-03-03T21:16:04.511Z,13.10
2019-03-03T21:18:32.960Z,13.20
2019-03-03T21:21:01.384Z,13.20
2019-03-03T21:23:29.876Z,13.20
2019-03-03T21:25:58.354Z,13.20
2019-03-03T21:28:46.136Z,13.30
2019-03-03T21:31:14.583Z,13.30
2019-03-03T21:33:43.012Z,13.40
2019-03-03T21:36:11.581Z,13.40
2019-03-03T21:38:39.967Z,13.40
2019-03-03T21:41:08.494Z,13.40
2019-03-03T21:43:36.948Z,13.40
2019-03-03T21:46:05.387Z,13.40
2019-03-03T21:48:33.827Z,13.40
2019-03-03T21:51:02.340Z,13.40
2019-03-03T21:53:30.838Z,13.40
2019-03-03T21:56:06.687Z,13.40
2019-03-03T21:58:35.102Z,13.50
2019-03-03T22:01:22.896Z,13.50
2019-03-03T22:03:51.313Z,13.50
2019-03-03T22:06:51.492Z,13.50
2019-03-03T22:09:20.496Z,13.50
2019-03-03T22:11:48.942Z,13.50
2019-03-03T22:14:17.437Z,13.50
2019-03-03T22:17:05.403Z,13.50
2019-03-03T22:19:33.828Z,13.50
2019-03-03T22:22:02.258Z,13.50
2019-03-03T22:24:30.716Z,13.50
2019-03-03T22:26:59.144Z,13.50
2019-03-03T22:29:27.566Z,13.50
2019-03-03T22:31:56.008Z,13.50
2019-03-03T22:34:24.460Z,13.50
2019-03-03T22:36:52.899Z,13.50
2019-03-03T22:39:21.326Z,13.50
2019-03-03T22:41:49.779Z,13.50
2019-03-03T22:44:18.251Z,13.60
2019-03-03T22:47:06.033Z,13.60
2019-03-03T22:49:34.480Z,13.60
2019-03-03T22:52:02.898Z,13.60
2019-03-03T22:57:26.945Z,13.60
2019-03-03T23:00:07.881Z,13.60
2019-03-03T23:02:48.627Z,13.60
2019-03-03T23:05:29.287Z,13.60
2019-03-03T23:08:00.816Z,13.60
2019-03-03T23:10:41.487Z,13.60
2019-03-03T23:13:19.120Z,13.60
2019-03-03T23:16:02.960Z,13.60
2019-03-03T23:19:01.160Z,13.60
2019-03-03T23:21:35.708Z,13.60
2019-03-03T23:24:29.138Z,13.60
2019-03-03T23:27:10.226Z,13.60
2019-03-03T23:29:38.666Z,13.60
2019-03-03T23:32:07.087Z,13.60
2019-03-03T23:34:35.535Z,13.60
2019-03-03T23:37:23.407Z,13.70
2019-03-03T23:39:51.884Z,13.70
2019-03-03T23:42:20.378Z,13.60
2019-03-03T23:44:48.823Z,13.60
2019-03-03T23:47:17.258Z,13.70
2019-03-03T23:49:45.690Z,13.70
2019-03-03T23:52:14.131Z,13.70
2019-03-03T23:55:01.891Z,13.70
2019-03-03T23:57:30.343Z,13.70
2019-03-03T23:59:58.783Z,13.70
